Terminal Aerodrome Forecast
Issued by NWS Pittsburgh, PA

Current Version | Previous Version | Text Only | Print | Product List | Glossary Off
Versions: 1 2 3 4 5 6 7 8 9 10 11 12 13 14 15 16 17 18 19 20 21 22 23 24 25 26 27 28

000
FTUS41 KPBZ 271700
TAFPIT
TAF
KPIT 271720Z 2718/2824 17008G16KT P6SM SCT040
     FM272300 16005KT P6SM BKN250
     FM281500 22012G22KT P6SM SCT050
     FM282200 24012G24KT P6SM VCSH BKN040=

USA.gov is the U.S. government's official web portal to all federal, state and local government web resources and services.